sensor_id;sensor_type;location;lat;lon;timestamp;temperature;humidity
13898;DHT22;7019;50.766;4.474;2023-02-27T00:01:59;0.20;99.90
13898;DHT22;7019;50.766;4.474;2023-02-27T00:04:26;0.20;99.90
13898;DHT22;7019;50.766;4.474;2023-02-27T00:06:53;0.20;99.90
13898;DHT22;7019;50.766;4.474;2023-02-27T00:09:20;0.10;99.90
13898;DHT22;7019;50.766;4.474;2023-02-27T00:11:49;0.10;99.90
13898;DHT22;7019;50.766;4.474;2023-02-27T00:14:16;0.00;99.90
13898;DHT22;7019;50.766;4.474;2023-02-27T00:16:43;0.10;99.90
13898;DHT22;7019;50.766;4.474;2023-02-27T00:19:10;0.00;99.90
13898;DHT22;7019;50.766;4.474;2023-02-27T00:21:38;0.00;99.90
13898;DHT22;7019;50.766;4.474;2023-02-27T00:24:06;0.00;99.90
13898;DHT22;7019;50.766;4.474;2023-02-27T00:26:33;0.00;99.90
13898;DHT22;7019;50.766;4.474;2023-02-27T00:29:02;0.00;99.90
13898;DHT22;7019;50.766;4.474;2023-02-27T00:31:29;0.00;99.90
13898;DHT22;7019;50.766;4.474;2023-02-27T00:33:57;0.00;99.90
13898;DHT22;7019;50.766;4.474;2023-02-27T00:36:24;-0.10;99.90
13898;DHT22;7019;50.766;4.474;2023-02-27T00:38:51;-0.10;99.90
13898;DHT22;7019;50.766;4.474;2023-02-27T00:41:18;-0.10;99.90
13898;DHT22;7019;50.766;4.474;2023-02-27T00:43:45;-0.20;99.90
13898;DHT22;7019;50.766;4.474;2023-02-27T00:46:13;-0.20;99.90
13898;DHT22;7019;50.766;4.474;2023-02-27T00:48:40;-0.20;99.90
13898;DHT22;7019;50.766;4.474;2023-02-27T00:51:08;-0.20;99.90
13898;DHT22;7019;50.766;4.474;2023-02-27T00:53:35;-0.30;99.90
13898;DHT22;7019;50.766;4.474;2023-02-27T00:56:02;-0.30;99.90
13898;DHT22;7019;50.766;4.474;2023-02-27T00:58:29;-0.30;99.90
13898;DHT22;7019;50.766;4.474;2023-02-27T01:00:58;-0.30;99.90
13898;DHT22;7019;50.766;4.474;2023-02-27T01:03:26;-0.30;99.90
13898;DHT22;7019;50.766;4.474;2023-02-27T01:05:53;-0.30;99.90
13898;DHT22;7019;50.766;4.474;2023-02-27T01:08:20;-0.30;99.90
13898;DHT22;7019;50.766;4.474;2023-02-27T01:10:47;-0.30;99.90
13898;DHT22;7019;50.766;4.474;2023-02-27T01:13:14;-0.30;99.90
13898;DHT22;7019;50.766;4.474;2023-02-27T01:15:41;-0.30;99.90
13898;DHT22;7019;50.766;4.474;2023-02-27T01:18:09;-0.30;99.90
13898;DHT22;7019;50.766;4.474;2023-02-27T01:20:37;-0.40;99.90
13898;DHT22;7019;50.766;4.474;2023-02-27T01:23:04;-0.40;99.90
13898;DHT22;7019;50.766;4.474;2023-02-27T01:25:31;-0.40;99.90
13898;DHT22;7019;50.766;4.474;2023-02-27T01:27:59;-0.50;99.90
13898;DHT22;7019;50.766;4.474;2023-02-27T01:30:26;-0.40;99.90
13898;DHT22;7019;50.766;4.474;2023-02-27T01:32:53;-0.50;99.90
13898;DHT22;7019;50.766;4.474;2023-02-27T01:35:20;-0.60;99.90
13898;DHT22;7019;50.766;4.474;2023-02-27T01:37:49;-0.60;99.90
13898;DHT22;7019;50.766;4.474;2023-02-27T01:40:16;-0.60;99.90
13898;DHT22;7019;50.766;4.474;2023-02-27T01:42:43;-0.70;99.90
13898;DHT22;7019;50.766;4.474;2023-02-27T01:45:29;-0.70;99.90
13898;DHT22;7019;50.766;4.474;2023-02-27T01:48:05;-0.70;99.90
13898;DHT22;7019;50.766;4.474;2023-02-27T01:50:34;-0.70;99.90
13898;DHT22;7019;50.766;4.474;2023-02-27T01:53:04;-0.70;99.90
13898;DHT22;7019;50.766;4.474;2023-02-27T01:55:35;-0.60;99.90
13898;DHT22;7019;50.766;4.474;2023-02-27T01:58:04;-0.70;99.90
13898;DHT22;7019;50.766;4.474;2023-02-27T02:00:32;-0.70;99.90
13898;DHT22;7019;50.766;4.474;2023-02-27T02:03:06;-0.80;99.90
13898;DHT22;7019;50.766;4.474;2023-02-27T02:05:35;-0.80;99.90
13898;DHT22;7019;50.766;4.474;2023-02-27T02:08:04;-0.80;99.90
13898;DHT22;7019;50.766;4.474;2023-02-27T02:10:31;-0.80;99.90
13898;DHT22;7019;50.766;4.474;2023-02-27T02:12:58;-0.80;99.90
13898;DHT22;7019;50.766;4.474;2023-02-27T02:15:31;-0.80;99.90
13898;DHT22;7019;50.766;4.474;2023-02-27T02:18:07;-0.90;99.90
13898;DHT22;7019;50.766;4.474;2023-02-27T02:24:47;-0.90;99.90
13898;DHT22;7019;50.766;4.474;2023-02-27T02:27:29;-0.90;99.90
13898;DHT22;7019;50.766;4.474;2023-02-27T02:33:40;-0.90;99.90
13898;DHT22;7019;50.766;4.474;2023-02-27T02:42:03;-1.00;99.90
13898;DHT22;7019;50.766;4.474;2023-02-27T02:44:38;-1.00;99.90
13898;DHT22;7019;50.766;4.474;2023-02-27T02:47:15;-1.10;99.90
13898;DHT22;7019;50.766;4.474;2023-02-27T02:49:51;-1.10;99.90
13898;DHT22;7019;50.766;4.474;2023-02-27T02:52:26;-1.00;99.90
13898;DHT22;7019;50.766;4.474;2023-02-27T02:55:00;-1.00;99.90
13898;DHT22;7019;50.766;4.474;2023-02-27T02:57:32;-1.10;99.90
13898;DHT22;7019;50.766;4.474;2023-02-27T03:00:05;-1.10;99.90
13898;DHT22;7019;50.766;4.474;2023-02-27T03:02:38;-1.00;99.90
13898;DHT22;7019;50.766;4.474;2023-02-27T03:05:09;-1.00;99.90
13898;DHT22;7019;50.766;4.474;2023-02-27T03:07:42;-1.00;99.90
13898;DHT22;7019;50.766;4.474;2023-02-27T03:10:14;-1.00;99.90
13898;DHT22;7019;50.766;4.474;2023-02-27T03:12:46;-1.00;99.90
13898;DHT22;7019;50.766;4.474;2023-02-27T03:15:16;-1.00;99.90
13898;DHT22;7019;50.766;4.474;2023-02-27T03:17:46;-1.00;99.90
13898;DHT22;7019;50.766;4.474;2023-02-27T03:20:19;-1.00;99.90
13898;DHT22;7019;50.766;4.474;2023-02-27T03:22:51;-1.00;99.90
13898;DHT22;7019;50.766;4.474;2023-02-27T03:25:24;-1.00;99.90
13898;DHT22;7019;50.766;4.474;2023-02-27T03:27:54;-1.00;99.90
13898;DHT22;7019;50.766;4.474;2023-02-27T03:30:26;-1.00;99.90
13898;DHT22;7019;50.766;4.474;2023-02-27T03:32:56;-1.10;99.90
13898;DHT22;7019;50.766;4.474;2023-02-27T03:35:37;-1.10;99.90
13898;DHT22;7019;50.766;4.474;2023-02-27T03:38:12;-1.20;99.90
13898;DHT22;7019;50.766;4.474;2023-02-27T03:40:51;-1.20;99.90
13898;DHT22;7019;50.766;4.474;2023-02-27T03:43:26;-1.10;99.90
13898;DHT22;7019;50.766;4.474;2023-02-27T03:46:00;-1.20;99.90
13898;DHT22;7019;50.766;4.474;2023-02-27T03:48:29;-1.20;99.90
13898;DHT22;7019;50.766;4.474;2023-02-27T03:50:56;-1.20;99.90
13898;DHT22;7019;50.766;4.474;2023-02-27T03:53:27;-1.20;99.90
13898;DHT22;7019;50.766;4.474;2023-02-27T03:55:59;-1.30;99.90
13898;DHT22;7019;50.766;4.474;2023-02-27T03:58:27;-1.30;99.90
13898;DHT22;7019;50.766;4.474;2023-02-27T04:00:54;-1.30;99.90
13898;DHT22;7019;50.766;4.474;2023-02-27T04:03:22;-1.30;99.90
13898;DHT22;7019;50.766;4.474;2023-02-27T04:05:49;-1.40;99.90
13898;DHT22;7019;50.766;4.474;2023-02-27T04:08:39;-1.40;99.90
13898;DHT22;7019;50.766;4.474;2023-02-27T04:11:26;-1.40;99.90
13898;DHT22;7019;50.766;4.474;2023-02-27T04:14:18;-1.50;99.90
13898;DHT22;7019;50.766;4.474;2023-02-27T04:17:08;-1.50;99.90
13898;DHT22;7019;50.766;4.474;2023-02-27T04:19:51;-1.40;99.90
13898;DHT22;7019;50.766;4.474;2023-02-27T04:22:29;-1.40;99.90
13898;DHT22;7019;50.766;4.474;2023-02-27T04:25:10;-1.40;99.90
13898;DHT22;7019;50.766;4.474;2023-02-27T04:27:50;-1.40;99.90
13898;DHT22;7019;50.766;4.474;2023-02-27T04:30:25;-1.30;99.90
13898;DHT22;7019;50.766;4.474;2023-02-27T04:32:56;-1.30;99.90
13898;DHT22;7019;50.766;4.474;2023-02-27T04:35:27;-1.30;99.90
13898;DHT22;7019;50.766;4.474;2023-02-27T04:38:00;-1.20;99.90
13898;DHT22;7019;50.766;4.474;2023-02-27T04:40:32;-1.30;99.90
13898;DHT22;7019;50.766;4.474;2023-02-27T04:43:04;-1.20;99.90
13898;DHT22;7019;50.766;4.474;2023-02-27T04:45:34;-1.30;99.90
13898;DHT22;7019;50.766;4.474;2023-02-27T04:48:09;-1.30;99.90
13898;DHT22;7019;50.766;4.474;2023-02-27T04:50:42;-1.30;99.90
13898;DHT22;7019;50.766;4.474;2023-02-27T04:53:15;-1.30;99.90
13898;DHT22;7019;50.766;4.474;2023-02-27T04:55:46;-1.40;99.90
13898;DHT22;7019;50.766;4.474;2023-02-27T04:58:18;-1.40;99.90
13898;DHT22;7019;50.766;4.474;2023-02-27T05:00:54;-1.40;99.90
13898;DHT22;7019;50.766;4.474;2023-02-27T05:03:25;-1.40;99.90
13898;DHT22;7019;50.766;4.474;2023-02-27T05:05:56;-1.50;99.90
13898;DHT22;7019;50.766;4.474;2023-02-27T05:08:28;-1.40;99.90
13898;DHT22;7019;50.766;4.474;2023-02-27T05:11:01;-1.50;99.90
13898;DHT22;7019;50.766;4.474;2023-02-27T05:13:33;-1.60;99.90
13898;DHT22;7019;50.766;4.474;2023-02-27T05:16:06;-1.60;99.90
13898;DHT22;7019;50.766;4.474;2023-02-27T05:18:35;-1.70;99.90
13898;DHT22;7019;50.766;4.474;2023-02-27T05:21:09;-1.70;99.90
13898;DHT22;7019;50.766;4.474;2023-02-27T05:23:44;-1.70;99.90
13898;DHT22;7019;50.766;4.474;2023-02-27T05:26:16;-1.80;99.90
13898;DHT22;7019;50.766;4.474;2023-02-27T05:28:50;-1.80;99.90
13898;DHT22;7019;50.766;4.474;2023-02-27T05:31:25;-1.80;99.90
13898;DHT22;7019;50.766;4.474;2023-02-27T05:33:57;-1.80;99.90
13898;DHT22;7019;50.766;4.474;2023-02-27T05:36:29;-1.80;99.90
13898;DHT22;7019;50.766;4.474;2023-02-27T05:38:59;-1.90;99.90
13898;DHT22;7019;50.766;4.474;2023-02-27T05:41:30;-1.90;99.90
13898;DHT22;7019;50.766;4.474;2023-02-27T05:44:04;-1.90;99.90
13898;DHT22;7019;50.766;4.474;2023-02-27T05:46:37;-1.90;99.90
13898;DHT22;7019;50.766;4.474;2023-02-27T05:49:07;-1.90;99.90
13898;DHT22;7019;50.766;4.474;2023-02-27T05:51:36;-1.90;99.90
13898;DHT22;7019;50.766;4.474;2023-02-27T05:54:10;-2.00;99.90
13898;DHT22;7019;50.766;4.474;2023-02-27T05:56:39;-2.00;99.90
13898;DHT22;7019;50.766;4.474;2023-02-27T05:59:15;-2.00;99.90
13898;DHT22;7019;50.766;4.474;2023-02-27T06:01:44;-2.00;99.90
13898;DHT22;7019;50.766;4.474;2023-02-27T06:04:11;-1.90;99.90
13898;DHT22;7019;50.766;4.474;2023-02-27T06:06:38;-2.00;99.90
13898;DHT22;7019;50.766;4.474;2023-02-27T06:09:07;-2.00;99.90
13898;DHT22;7019;50.766;4.474;2023-02-27T06:11:34;-2.10;99.90
13898;DHT22;7019;50.766;4.474;2023-02-27T06:14:01;-2.10;99.90
13898;DHT22;7019;50.766;4.474;2023-02-27T06:16:29;-2.10;99.90
13898;DHT22;7019;50.766;4.474;2023-02-27T06:18:56;-2.10;99.90
13898;DHT22;7019;50.766;4.474;2023-02-27T06:21:23;-2.10;99.90
13898;DHT22;7019;50.766;4.474;2023-02-27T06:23:50;-2.20;99.90
13898;DHT22;7019;50.766;4.474;2023-02-27T06:26:17;-2.20;99.90
13898;DHT22;7019;50.766;4.474;2023-02-27T06:28:44;-2.10;99.90
13898;DHT22;7019;50.766;4.474;2023-02-27T06:31:11;-2.00;99.90
13898;DHT22;7019;50.766;4.474;2023-02-27T06:33:40;-1.90;99.90
13898;DHT22;7019;50.766;4.474;2023-02-27T06:36:07;-2.00;99.90
13898;DHT22;7019;50.766;4.474;2023-02-27T06:38:34;-2.00;99.90
13898;DHT22;7019;50.766;4.474;2023-02-27T06:41:01;-2.10;99.90
13898;DHT22;7019;50.766;4.474;2023-02-27T06:43:29;-2.10;99.90
13898;DHT22;7019;50.766;4.474;2023-02-27T06:45:59;-2.10;99.90
13898;DHT22;7019;50.766;4.474;2023-02-27T06:48:26;-2.10;99.90
13898;DHT22;7019;50.766;4.474;2023-02-27T06:50:55;-2.00;99.90
13898;DHT22;7019;50.766;4.474;2023-02-27T06:53:23;-2.10;99.90
13898;DHT22;7019;50.766;4.474;2023-02-27T06:55:50;-2.00;99.90
13898;DHT22;7019;50.766;4.474;2023-02-27T06:58:18;-1.90;99.90
13898;DHT22;7019;50.766;4.474;2023-02-27T07:00:45;-1.80;99.90
13898;DHT22;7019;50.766;4.474;2023-02-27T07:03:12;-1.80;99.90
13898;DHT22;7019;50.766;4.474;2023-02-27T07:05:40;-1.80;99.90
13898;DHT22;7019;50.766;4.474;2023-02-27T07:08:09;-1.90;99.90
13898;DHT22;7019;50.766;4.474;2023-02-27T07:10:37;-1.90;99.90
13898;DHT22;7019;50.766;4.474;2023-02-27T07:13:04;-1.80;99.90
13898;DHT22;7019;50.766;4.474;2023-02-27T07:15:32;-1.80;99.90
13898;DHT22;7019;50.766;4.474;2023-02-27T07:17:58;-1.80;99.90
13898;DHT22;7019;50.766;4.474;2023-02-27T07:20:26;-1.80;99.90
13898;DHT22;7019;50.766;4.474;2023-02-27T07:22:52;-1.70;99.90
13898;DHT22;7019;50.766;4.474;2023-02-27T07:25:21;-1.60;99.90
13898;DHT22;7019;50.766;4.474;2023-02-27T07:27:48;-1.50;99.90
13898;DHT22;7019;50.766;4.474;2023-02-27T07:30:16;-1.40;99.90
13898;DHT22;7019;50.766;4.474;2023-02-27T07:32:44;-1.20;99.90
13898;DHT22;7019;50.766;4.474;2023-02-27T07:35:11;-1.10;99.90
13898;DHT22;7019;50.766;4.474;2023-02-27T07:37:39;-1.00;99.90
13898;DHT22;7019;50.766;4.474;2023-02-27T07:40:06;-0.80;99.90
13898;DHT22;7019;50.766;4.474;2023-02-27T07:42:36;-0.60;99.90
13898;DHT22;7019;50.766;4.474;2023-02-27T07:45:05;-0.50;99.90
13898;DHT22;7019;50.766;4.474;2023-02-27T07:47:32;-0.40;99.90
13898;DHT22;7019;50.766;4.474;2023-02-27T07:49:59;-0.40;99.90
13898;DHT22;7019;50.766;4.474;2023-02-27T07:52:26;-0.40;99.90
13898;DHT22;7019;50.766;4.474;2023-02-27T07:54:53;-0.40;99.90
13898;DHT22;7019;50.766;4.474;2023-02-27T07:57:21;-0.40;99.90
13898;DHT22;7019;50.766;4.474;2023-02-27T07:59:49;-0.30;99.90
13898;DHT22;7019;50.766;4.474;2023-02-27T08:02:16;-0.30;99.90
13898;DHT22;7019;50.766;4.474;2023-02-27T08:04:43;-0.20;99.90
13898;DHT22;7019;50.766;4.474;2023-02-27T08:07:10;0.00;99.90
13898;DHT22;7019;50.766;4.474;2023-02-27T08:09:37;0.20;99.90
13898;DHT22;7019;50.766;4.474;2023-02-27T08:12:04;0.30;99.90
13898;DHT22;7019;50.766;4.474;2023-02-27T08:14:31;0.40;99.90
13898;DHT22;7019;50.766;4.474;2023-02-27T08:17:00;0.40;99.90
13898;DHT22;7019;50.766;4.474;2023-02-27T08:19:27;0.40;99.90
13898;DHT22;7019;50.766;4.474;2023-02-27T08:21:54;0.50;99.90
13898;DHT22;7019;50.766;4.474;2023-02-27T08:24:21;0.60;99.90
13898;DHT22;7019;50.766;4.474;2023-02-27T08:26:48;0.80;99.90
13898;DHT22;7019;50.766;4.474;2023-02-27T08:29:16;0.90;99.90
13898;DHT22;7019;50.766;4.474;2023-02-27T08:31:43;0.90;99.90
13898;DHT22;7019;50.766;4.474;2023-02-27T08:34:12;1.00;99.90
13898;DHT22;7019;50.766;4.474;2023-02-27T08:36:39;0.90;99.90
13898;DHT22;7019;50.766;4.474;2023-02-27T08:39:07;0.80;99.90
13898;DHT22;7019;50.766;4.474;2023-02-27T08:41:34;0.70;99.90
13898;DHT22;7019;50.766;4.474;2023-02-27T08:44:02;0.60;99.90
13898;DHT22;7019;50.766;4.474;2023-02-27T08:46:29;0.50;99.90
13898;DHT22;7019;50.766;4.474;2023-02-27T08:48:56;0.50;99.90
13898;DHT22;7019;50.766;4.474;2023-02-27T08:51:25;0.50;99.90
13898;DHT22;7019;50.766;4.474;2023-02-27T08:53:52;0.50;99.90
13898;DHT22;7019;50.766;4.474;2023-02-27T08:56:23;0.50;99.90
13898;DHT22;7019;50.766;4.474;2023-02-27T08:58:58;0.50;99.90
13898;DHT22;7019;50.766;4.474;2023-02-27T09:01:26;0.60;99.90
13898;DHT22;7019;50.766;4.474;2023-02-27T09:03:59;0.70;99.90
13898;DHT22;7019;50.766;4.474;2023-02-27T09:06:29;0.70;99.90
13898;DHT22;7019;50.766;4.474;2023-02-27T09:08:56;0.70;99.90
13898;DHT22;7019;50.766;4.474;2023-02-27T09:11:24;0.70;99.90
13898;DHT22;7019;50.766;4.474;2023-02-27T09:13:51;0.80;99.90
13898;DHT22;7019;50.766;4.474;2023-02-27T09:16:18;0.90;99.90
13898;DHT22;7019;50.766;4.474;2023-02-27T09:18:46;1.00;99.90
13898;DHT22;7019;50.766;4.474;2023-02-27T09:21:14;1.00;99.90
13898;DHT22;7019;50.766;4.474;2023-02-27T09:23:43;1.00;99.90
13898;DHT22;7019;50.766;4.474;2023-02-27T09:26:10;1.00;99.90
13898;DHT22;7019;50.766;4.474;2023-02-27T09:28:37;1.10;99.90
13898;DHT22;7019;50.766;4.474;2023-02-27T09:31:06;1.10;99.90
13898;DHT22;7019;50.766;4.474;2023-02-27T09:33:34;1.20;99.90
13898;DHT22;7019;50.766;4.474;2023-02-27T09:36:02;1.30;99.90
13898;DHT22;7019;50.766;4.474;2023-02-27T09:38:30;1.30;99.90
13898;DHT22;7019;50.766;4.474;2023-02-27T09:40:58;1.30;99.90
13898;DHT22;7019;50.766;4.474;2023-02-27T09:43:31;1.40;99.90
13898;DHT22;7019;50.766;4.474;2023-02-27T09:46:00;1.40;99.90
13898;DHT22;7019;50.766;4.474;2023-02-27T09:48:30;1.60;99.90
13898;DHT22;7019;50.766;4.474;2023-02-27T09:50:59;1.60;99.90
13898;DHT22;7019;50.766;4.474;2023-02-27T09:53:28;1.80;99.90
13898;DHT22;7019;50.766;4.474;2023-02-27T09:56:02;2.00;99.90
13898;DHT22;7019;50.766;4.474;2023-02-27T09:58:42;2.10;99.90
13898;DHT22;7019;50.766;4.474;2023-02-27T10:01:15;2.30;99.90
13898;DHT22;7019;50.766;4.474;2023-02-27T10:04:03;2.40;99.90
13898;DHT22;7019;50.766;4.474;2023-02-27T10:06:37;2.40;99.90
13898;DHT22;7019;50.766;4.474;2023-02-27T10:09:15;2.50;99.90
13898;DHT22;7019;50.766;4.474;2023-02-27T10:11:56;2.50;99.90
13898;DHT22;7019;50.766;4.474;2023-02-27T10:14:36;2.60;99.90
13898;DHT22;7019;50.766;4.474;2023-02-27T10:17:10;2.70;99.90
13898;DHT22;7019;50.766;4.474;2023-02-27T10:19:39;2.80;99.90
13898;DHT22;7019;50.766;4.474;2023-02-27T10:22:12;2.80;99.90
13898;DHT22;7019;50.766;4.474;2023-02-27T10:24:45;2.70;99.90
13898;DHT22;7019;50.766;4.474;2023-02-27T10:27:16;2.80;99.90
13898;DHT22;7019;50.766;4.474;2023-02-27T10:29:45;2.80;99.90
13898;DHT22;7019;50.766;4.474;2023-02-27T10:32:15;2.90;99.90
13898;DHT22;7019;50.766;4.474;2023-02-27T10:34:47;2.90;99.90
13898;DHT22;7019;50.766;4.474;2023-02-27T10:37:20;3.10;99.90
13898;DHT22;7019;50.766;4.474;2023-02-27T10:39:52;3.30;99.90
13898;DHT22;7019;50.766;4.474;2023-02-27T10:42:23;3.30;99.90
13898;DHT22;7019;50.766;4.474;2023-02-27T10:44:51;3.30;99.90
13898;DHT22;7019;50.766;4.474;2023-02-27T10:47:21;3.40;99.90
13898;DHT22;7019;50.766;4.474;2023-02-27T10:49:49;3.30;99.90
13898;DHT22;7019;50.766;4.474;2023-02-27T10:52:16;3.50;99.90
13898;DHT22;7019;50.766;4.474;2023-02-27T10:54:44;3.70;99.90
13898;DHT22;7019;50.766;4.474;2023-02-27T10:57:26;3.70;99.90
13898;DHT22;7019;50.766;4.474;2023-02-27T10:59:57;3.80;99.90
13898;DHT22;7019;50.766;4.474;2023-02-27T11:02:30;3.80;99.90
13898;DHT22;7019;50.766;4.474;2023-02-27T11:04:59;3.70;99.90
13898;DHT22;7019;50.766;4.474;2023-02-27T11:07:30;3.80;99.90
13898;DHT22;7019;50.766;4.474;2023-02-27T11:10:04;3.90;99.90
13898;DHT22;7019;50.766;4.474;2023-02-27T11:12:57;3.90;99.90
13898;DHT22;7019;50.766;4.474;2023-02-27T11:15:29;4.00;99.90
13898;DHT22;7019;50.766;4.474;2023-02-27T11:18:19;3.90;99.90
13898;DHT22;7019;50.766;4.474;2023-02-27T11:20:47;4.00;99.90
13898;DHT22;7019;50.766;4.474;2023-02-27T11:23:18;3.90;99.90
13898;DHT22;7019;50.766;4.474;2023-02-27T11:25:46;3.90;99.90
13898;DHT22;7019;50.766;4.474;2023-02-27T11:28:21;3.90;99.90
13898;DHT22;7019;50.766;4.474;2023-02-27T11:30:59;4.10;99.90
13898;DHT22;7019;50.766;4.474;2023-02-27T11:33:29;4.30;99.90
13898;DHT22;7019;50.766;4.474;2023-02-27T11:35:58;4.40;99.90
13898;DHT22;7019;50.766;4.474;2023-02-27T11:38:26;4.40;99.90
13898;DHT22;7019;50.766;4.474;2023-02-27T11:40:57;4.20;99.90
13898;DHT22;7019;50.766;4.474;2023-02-27T11:43:28;4.30;99.90
13898;DHT22;7019;50.766;4.474;2023-02-27T11:45:58;4.30;99.90
13898;DHT22;7019;50.766;4.474;2023-02-27T11:48:30;4.40;99.90
13898;DHT22;7019;50.766;4.474;2023-02-27T11:54:12;4.70;99.90
13898;DHT22;7019;50.766;4.474;2023-02-27T11:56:43;4.70;99.90
13898;DHT22;7019;50.766;4.474;2023-02-27T11:59:36;4.70;99.90
13898;DHT22;7019;50.766;4.474;2023-02-27T12:02:13;5.00;99.90
13898;DHT22;7019;50.766;4.474;2023-02-27T12:04:45;5.10;99.90
13898;DHT22;7019;50.766;4.474;2023-02-27T12:07:17;5.10;99.90
13898;DHT22;7019;50.766;4.474;2023-02-27T12:09:53;4.90;99.90
13898;DHT22;7019;50.766;4.474;2023-02-27T12:12:27;5.00;99.90
13898;DHT22;7019;50.766;4.474;2023-02-27T12:15:02;5.10;99.90
13898;DHT22;7019;50.766;4.474;2023-02-27T12:17:35;5.30;99.90
13898;DHT22;7019;50.766;4.474;2023-02-27T12:20:29;5.30;99.90
13898;DHT22;7019;50.766;4.474;2023-02-27T12:23:01;5.40;99.90
13898;DHT22;7019;50.766;4.474;2023-02-27T12:25:37;5.60;99.90
13898;DHT22;7019;50.766;4.474;2023-02-27T12:28:16;5.60;99.90
13898;DHT22;7019;50.766;4.474;2023-02-27T12:30:51;5.60;99.90
13898;DHT22;7019;50.766;4.474;2023-02-27T12:33:31;5.60;99.90
13898;DHT22;7019;50.766;4.474;2023-02-27T12:36:02;5.30;99.90
13898;DHT22;7019;50.766;4.474;2023-02-27T12:38:30;5.10;99.90
13898;DHT22;7019;50.766;4.474;2023-02-27T12:41:13;4.90;99.90
13898;DHT22;7019;50.766;4.474;2023-02-27T12:43:44;4.70;99.90
13898;DHT22;7019;50.766;4.474;2023-02-27T12:46:36;4.60;99.90
13898;DHT22;7019;50.766;4.474;2023-02-27T12:49:20;4.50;99.90
13898;DHT22;7019;50.766;4.474;2023-02-27T12:51:58;4.40;99.90
13898;DHT22;7019;50.766;4.474;2023-02-27T12:54:36;4.50;99.90
13898;DHT22;7019;50.766;4.474;2023-02-27T12:57:17;4.50;99.90
13898;DHT22;7019;50.766;4.474;2023-02-27T12:59:58;4.50;99.90
13898;DHT22;7019;50.766;4.474;2023-02-27T13:02:39;4.50;99.90
13898;DHT22;7019;50.766;4.474;2023-02-27T13:08:09;4.40;99.90
13898;DHT22;7019;50.766;4.474;2023-02-27T13:10:44;4.50;99.90
13898;DHT22;7019;50.766;4.474;2023-02-27T13:13:17;4.40;99.90
13898;DHT22;7019;50.766;4.474;2023-02-27T13:15:50;4.30;99.90
13898;DHT22;7019;50.766;4.474;2023-02-27T13:18:31;4.50;99.90
13898;DHT22;7019;50.766;4.474;2023-02-27T13:21:07;4.50;99.90
13898;DHT22;7019;50.766;4.474;2023-02-27T13:23:41;4.60;99.90
13898;DHT22;7019;50.766;4.474;2023-02-27T13:26:18;4.70;99.90
13898;DHT22;7019;50.766;4.474;2023-02-27T13:28:46;4.60;99.90
13898;DHT22;7019;50.766;4.474;2023-02-27T13:31:19;4.60;99.90
13898;DHT22;7019;50.766;4.474;2023-02-27T13:33:58;4.60;99.90
13898;DHT22;7019;50.766;4.474;2023-02-27T13:36:33;4.60;99.90
13898;DHT22;7019;50.766;4.474;2023-02-27T13:39:02;4.60;99.90
13898;DHT22;7019;50.766;4.474;2023-02-27T13:41:36;4.60;99.90
13898;DHT22;7019;50.766;4.474;2023-02-27T13:47:39;4.60;99.90
13898;DHT22;7019;50.766;4.474;2023-02-27T13:53:19;4.70;99.90
13898;DHT22;7019;50.766;4.474;2023-02-27T13:55:54;4.60;99.90
13898;DHT22;7019;50.766;4.474;2023-02-27T13:58:22;4.70;99.90
13898;DHT22;7019;50.766;4.474;2023-02-27T14:00:56;4.70;99.90
13898;DHT22;7019;50.766;4.474;2023-02-27T14:03:27;4.80;99.90
13898;DHT22;7019;50.766;4.474;2023-02-27T14:05:58;5.00;99.90
13898;DHT22;7019;50.766;4.474;2023-02-27T14:08:30;4.90;99.90
13898;DHT22;7019;50.766;4.474;2023-02-27T14:11:01;4.90;99.90
13898;DHT22;7019;50.766;4.474;2023-02-27T14:14:02;4.90;99.90
13898;DHT22;7019;50.766;4.474;2023-02-27T14:16:58;4.80;99.90
13898;DHT22;7019;50.766;4.474;2023-02-27T14:19:50;4.80;99.90
13898;DHT22;7019;50.766;4.474;2023-02-27T14:22:39;4.80;99.90
13898;DHT22;7019;50.766;4.474;2023-02-27T14:25:17;4.80;99.90
13898;DHT22;7019;50.766;4.474;2023-02-27T14:27:52;4.80;99.90
13898;DHT22;7019;50.766;4.474;2023-02-27T14:30:27;4.90;99.90
13898;DHT22;7019;50.766;4.474;2023-02-27T14:32:58;4.90;99.90
13898;DHT22;7019;50.766;4.474;2023-02-27T14:35:26;4.80;99.90
13898;DHT22;7019;50.766;4.474;2023-02-27T14:37:53;4.70;99.90
13898;DHT22;7019;50.766;4.474;2023-02-27T14:40:27;4.60;99.90
13898;DHT22;7019;50.766;4.474;2023-02-27T14:43:07;4.60;99.90
13898;DHT22;7019;50.766;4.474;2023-02-27T14:45:35;4.60;99.90
13898;DHT22;7019;50.766;4.474;2023-02-27T14:48:08;4.70;99.90
13898;DHT22;7019;50.766;4.474;2023-02-27T14:50:39;4.60;99.90
13898;DHT22;7019;50.766;4.474;2023-02-27T14:53:19;4.60;99.90
13898;DHT22;7019;50.766;4.474;2023-02-27T14:55:54;4.60;99.90
13898;DHT22;7019;50.766;4.474;2023-02-27T14:58:22;4.70;99.90
13898;DHT22;7019;50.766;4.474;2023-02-27T15:00:59;4.60;99.90
13898;DHT22;7019;50.766;4.474;2023-02-27T15:03:34;4.60;99.90
13898;DHT22;7019;50.766;4.474;2023-02-27T15:06:04;4.50;99.90
13898;DHT22;7019;50.766;4.474;2023-02-27T15:08:39;4.60;99.90
13898;DHT22;7019;50.766;4.474;2023-02-27T15:11:13;4.70;99.90
13898;DHT22;7019;50.766;4.474;2023-02-27T15:13:41;4.70;99.90
13898;DHT22;7019;50.766;4.474;2023-02-27T15:16:26;4.60;99.90
13898;DHT22;7019;50.766;4.474;2023-02-27T15:18:56;4.60;99.90
13898;DHT22;7019;50.766;4.474;2023-02-27T15:21:25;4.60;99.90
13898;DHT22;7019;50.766;4.474;2023-02-27T15:23:56;4.70;99.90
13898;DHT22;7019;50.766;4.474;2023-02-27T15:26:26;4.70;99.90
13898;DHT22;7019;50.766;4.474;2023-02-27T15:28:55;4.60;99.90
13898;DHT22;7019;50.766;4.474;2023-02-27T15:31:24;4.50;99.90
13898;DHT22;7019;50.766;4.474;2023-02-27T15:33:55;4.50;99.90
13898;DHT22;7019;50.766;4.474;2023-02-27T15:36:25;4.60;99.90
13898;DHT22;7019;50.766;4.474;2023-02-27T15:39:12;4.60;99.90
13898;DHT22;7019;50.766;4.474;2023-02-27T15:41:44;4.70;99.90
13898;DHT22;7019;50.766;4.474;2023-02-27T15:44:14;4.70;99.90
13898;DHT22;7019;50.766;4.474;2023-02-27T15:46:42;4.60;99.90
13898;DHT22;7019;50.766;4.474;2023-02-27T15:49:14;4.60;99.90
13898;DHT22;7019;50.766;4.474;2023-02-27T15:51:42;4.50;99.90
13898;DHT22;7019;50.766;4.474;2023-02-27T15:54:09;4.40;99.90
13898;DHT22;7019;50.766;4.474;2023-02-27T15:56:38;4.40;99.90
13898;DHT22;7019;50.766;4.474;2023-02-27T15:59:06;4.40;99.90
13898;DHT22;7019;50.766;4.474;2023-02-27T16:01:36;4.40;99.90
13898;DHT22;7019;50.766;4.474;2023-02-27T16:04:05;4.40;99.90
13898;DHT22;7019;50.766;4.474;2023-02-27T16:06:40;4.40;99.90
13898;DHT22;7019;50.766;4.474;2023-02-27T16:09:20;4.40;99.90
13898;DHT22;7019;50.766;4.474;2023-02-27T16:11:49;4.40;99.90
13898;DHT22;7019;50.766;4.474;2023-02-27T16:14:40;4.40;99.90
13898;DHT22;7019;50.766;4.474;2023-02-27T16:17:25;4.40;99.90
13898;DHT22;7019;50.766;4.474;2023-02-27T16:19:53;4.30;99.90
13898;DHT22;7019;50.766;4.474;2023-02-27T16:22:21;4.30;99.90
13898;DHT22;7019;50.766;4.474;2023-02-27T16:24:49;4.30;99.90
13898;DHT22;7019;50.766;4.474;2023-02-27T16:27:21;4.30;99.90
13898;DHT22;7019;50.766;4.474;2023-02-27T16:29:51;4.20;99.90
13898;DHT22;7019;50.766;4.474;2023-02-27T16:32:23;4.10;99.90
13898;DHT22;7019;50.766;4.474;2023-02-27T16:34:51;4.10;99.90
13898;DHT22;7019;50.766;4.474;2023-02-27T16:37:29;4.00;99.90
13898;DHT22;7019;50.766;4.474;2023-02-27T16:39:57;4.00;99.90
13898;DHT22;7019;50.766;4.474;2023-02-27T16:42:24;4.00;99.90
13898;DHT22;7019;50.766;4.474;2023-02-27T16:44:53;4.00;99.90
13898;DHT22;7019;50.766;4.474;2023-02-27T16:47:20;3.90;99.90
13898;DHT22;7019;50.766;4.474;2023-02-27T16:49:47;3.90;99.90